sensor_id;sensor_type;location;lat;lon;timestamp;temperature;humidity
1988;DHT22;12775;46.994;15.498;2023-04-03T00:00:14;6.30;69.90
1988;DHT22;12775;46.994;15.498;2023-04-03T00:02:41;6.20;69.40
1988;DHT22;12775;46.994;15.498;2023-04-03T00:05:08;6.10;69.30
1988;DHT22;12775;46.994;15.498;2023-04-03T00:07:35;6.10;69.70
1988;DHT22;12775;46.994;15.498;2023-04-03T00:10:04;6.10;69.60
1988;DHT22;12775;46.994;15.498;2023-04-03T00:12:31;6.20;69.10
1988;DHT22;12775;46.994;15.498;2023-04-03T00:14:59;6.20;69.10
1988;DHT22;12775;46.994;15.498;2023-04-03T00:17:27;6.30;68.30
1988;DHT22;12775;46.994;15.498;2023-04-03T00:19:54;6.30;67.90
1988;DHT22;12775;46.994;15.498;2023-04-03T00:22:21;6.30;67.90
1988;DHT22;12775;46.994;15.498;2023-04-03T00:24:48;6.40;68.10
1988;DHT22;12775;46.994;15.498;2023-04-03T00:27:15;6.30;68.40
1988;DHT22;12775;46.994;15.498;2023-04-03T00:29:43;6.20;68.60
1988;DHT22;12775;46.994;15.498;2023-04-03T00:32:10;6.20;68.70
1988;DHT22;12775;46.994;15.498;2023-04-03T00:34:38;6.10;69.00
1988;DHT22;12775;46.994;15.498;2023-04-03T00:37:05;6.10;69.10
1988;DHT22;12775;46.994;15.498;2023-04-03T00:39:32;6.10;69.10
1988;DHT22;12775;46.994;15.498;2023-04-03T00:41:59;6.10;69.10
1988;DHT22;12775;46.994;15.498;2023-04-03T00:47:25;6.00;70.20
1988;DHT22;12775;46.994;15.498;2023-04-03T00:49:53;6.00;69.60
1988;DHT22;12775;46.994;15.498;2023-04-03T00:52:21;6.00;69.40
1988;DHT22;12775;46.994;15.498;2023-04-03T00:54:48;6.00;69.60
1988;DHT22;12775;46.994;15.498;2023-04-03T00:57:15;5.90;69.60
1988;DHT22;12775;46.994;15.498;2023-04-03T00:59:43;6.00;69.50
1988;DHT22;12775;46.994;15.498;2023-04-03T01:02:10;6.00;69.20
1988;DHT22;12775;46.994;15.498;2023-04-03T01:04:37;6.00;69.90
1988;DHT22;12775;46.994;15.498;2023-04-03T01:07:06;6.10;68.60
1988;DHT22;12775;46.994;15.498;2023-04-03T01:09:30;6.10;68.60
1988;DHT22;12775;46.994;15.498;2023-04-03T01:14:36;6.10;69.00
1988;DHT22;12775;46.994;15.498;2023-04-03T01:17:03;6.00;68.60
1988;DHT22;12775;46.994;15.498;2023-04-03T01:19:30;6.10;68.60
1988;DHT22;12775;46.994;15.498;2023-04-03T01:22:06;6.00;68.80
1988;DHT22;12775;46.994;15.498;2023-04-03T01:24:34;6.10;68.90
1988;DHT22;12775;46.994;15.498;2023-04-03T01:27:00;5.90;68.60
1988;DHT22;12775;46.994;15.498;2023-04-03T01:29:27;6.00;68.90
1988;DHT22;12775;46.994;15.498;2023-04-03T01:31:56;6.00;68.80
1988;DHT22;12775;46.994;15.498;2023-04-03T01:34:22;5.90;68.60
1988;DHT22;12775;46.994;15.498;2023-04-03T01:36:48;6.00;68.80
1988;DHT22;12775;46.994;15.498;2023-04-03T01:39:15;5.90;69.20
1988;DHT22;12775;46.994;15.498;2023-04-03T01:41:43;5.90;69.20
1988;DHT22;12775;46.994;15.498;2023-04-03T01:44:09;5.90;69.20
1988;DHT22;12775;46.994;15.498;2023-04-03T01:46:36;5.80;69.40
1988;DHT22;12775;46.994;15.498;2023-04-03T01:49:04;5.90;70.30
1988;DHT22;12775;46.994;15.498;2023-04-03T01:51:32;5.90;69.30
1988;DHT22;12775;46.994;15.498;2023-04-03T01:53:59;6.00;69.50
1988;DHT22;12775;46.994;15.498;2023-04-03T01:56:27;6.00;69.20
1988;DHT22;12775;46.994;15.498;2023-04-03T01:58:54;6.00;70.00
1988;DHT22;12775;46.994;15.498;2023-04-03T02:01:21;6.00;70.60
1988;DHT22;12775;46.994;15.498;2023-04-03T02:03:49;6.00;69.10
1988;DHT22;12775;46.994;15.498;2023-04-03T02:06:16;6.00;68.70
1988;DHT22;12775;46.994;15.498;2023-04-03T02:08:44;6.00;68.50
1988;DHT22;12775;46.994;15.498;2023-04-03T02:11:11;6.00;69.00
1988;DHT22;12775;46.994;15.498;2023-04-03T02:13:38;6.00;69.40
1988;DHT22;12775;46.994;15.498;2023-04-03T02:16:07;6.10;68.70
1988;DHT22;12775;46.994;15.498;2023-04-03T02:18:33;6.10;68.50
1988;DHT22;12775;46.994;15.498;2023-04-03T02:21:01;6.10;68.60
1988;DHT22;12775;46.994;15.498;2023-04-03T02:23:28;6.10;68.50
1988;DHT22;12775;46.994;15.498;2023-04-03T02:26:10;6.10;68.50
1988;DHT22;12775;46.994;15.498;2023-04-03T02:28:36;6.20;68.60
1988;DHT22;12775;46.994;15.498;2023-04-03T02:31:03;6.20;68.60
1988;DHT22;12775;46.994;15.498;2023-04-03T02:33:30;6.20;68.70
1988;DHT22;12775;46.994;15.498;2023-04-03T02:35:57;6.00;69.20
1988;DHT22;12775;46.994;15.498;2023-04-03T02:38:25;6.00;68.90
1988;DHT22;12775;46.994;15.498;2023-04-03T02:40:52;6.00;68.70
1988;DHT22;12775;46.994;15.498;2023-04-03T02:43:20;5.90;69.10
1988;DHT22;12775;46.994;15.498;2023-04-03T02:45:47;5.90;69.00
1988;DHT22;12775;46.994;15.498;2023-04-03T02:48:14;5.80;69.10
1988;DHT22;12775;46.994;15.498;2023-04-03T02:50:42;5.50;69.70
1988;DHT22;12775;46.994;15.498;2023-04-03T02:53:09;5.50;69.60
1988;DHT22;12775;46.994;15.498;2023-04-03T02:55:37;5.50;69.50
1988;DHT22;12775;46.994;15.498;2023-04-03T02:58:05;5.40;69.70
1988;DHT22;12775;46.994;15.498;2023-04-03T03:00:32;5.40;70.50
1988;DHT22;12775;46.994;15.498;2023-04-03T03:02:59;5.40;70.50
1988;DHT22;12775;46.994;15.498;2023-04-03T03:05:26;5.40;69.00
1988;DHT22;12775;46.994;15.498;2023-04-03T03:07:54;5.30;69.80
1988;DHT22;12775;46.994;15.498;2023-04-03T03:10:22;5.40;70.00
1988;DHT22;12775;46.994;15.498;2023-04-03T03:12:49;5.30;69.80
1988;DHT22;12775;46.994;15.498;2023-04-03T03:15:16;5.30;70.20
1988;DHT22;12775;46.994;15.498;2023-04-03T03:17:44;5.20;70.70
1988;DHT22;12775;46.994;15.498;2023-04-03T03:20:12;5.20;70.80
1988;DHT22;12775;46.994;15.498;2023-04-03T03:22:39;5.20;70.90
1988;DHT22;12775;46.994;15.498;2023-04-03T03:25:08;5.20;71.40
1988;DHT22;12775;46.994;15.498;2023-04-03T03:27:36;5.20;70.70
1988;DHT22;12775;46.994;15.498;2023-04-03T03:30:05;5.10;71.10
1988;DHT22;12775;46.994;15.498;2023-04-03T03:32:32;4.90;71.20
1988;DHT22;12775;46.994;15.498;2023-04-03T03:35:00;4.90;71.20
1988;DHT22;12775;46.994;15.498;2023-04-03T03:37:27;4.80;71.10
1988;DHT22;12775;46.994;15.498;2023-04-03T03:39:54;4.70;69.60
1988;DHT22;12775;46.994;15.498;2023-04-03T03:42:21;4.70;69.40
1988;DHT22;12775;46.994;15.498;2023-04-03T03:44:48;4.70;68.90
1988;DHT22;12775;46.994;15.498;2023-04-03T03:47:15;4.70;68.60
1988;DHT22;12775;46.994;15.498;2023-04-03T03:49:43;4.70;68.70
1988;DHT22;12775;46.994;15.498;2023-04-03T03:52:11;4.70;68.50
1988;DHT22;12775;46.994;15.498;2023-04-03T03:54:38;4.70;67.80
1988;DHT22;12775;46.994;15.498;2023-04-03T03:57:05;4.80;68.30
1988;DHT22;12775;46.994;15.498;2023-04-03T03:59:33;4.70;68.20
1988;DHT22;12775;46.994;15.498;2023-04-03T04:02:00;4.70;68.20
1988;DHT22;12775;46.994;15.498;2023-04-03T04:04:29;4.80;68.60
1988;DHT22;12775;46.994;15.498;2023-04-03T04:06:56;4.80;67.70
1988;DHT22;12775;46.994;15.498;2023-04-03T04:09:23;4.80;67.90
1988;DHT22;12775;46.994;15.498;2023-04-03T04:11:52;4.90;68.90
1988;DHT22;12775;46.994;15.498;2023-04-03T04:14:19;4.90;68.20
1988;DHT22;12775;46.994;15.498;2023-04-03T04:16:47;4.90;68.10
1988;DHT22;12775;46.994;15.498;2023-04-03T04:19:15;5.00;67.70
1988;DHT22;12775;46.994;15.498;2023-04-03T04:21:42;5.00;67.80
1988;DHT22;12775;46.994;15.498;2023-04-03T04:24:09;5.10;68.20
1988;DHT22;12775;46.994;15.498;2023-04-03T04:26:37;5.10;67.70
1988;DHT22;12775;46.994;15.498;2023-04-03T04:29:04;5.10;68.00
1988;DHT22;12775;46.994;15.498;2023-04-03T04:31:31;5.10;68.20
1988;DHT22;12775;46.994;15.498;2023-04-03T04:33:59;5.20;68.20
1988;DHT22;12775;46.994;15.498;2023-04-03T04:36:26;5.30;68.00
1988;DHT22;12775;46.994;15.498;2023-04-03T04:38:53;5.40;69.30
1988;DHT22;12775;46.994;15.498;2023-04-03T04:41:21;5.40;69.60
1988;DHT22;12775;46.994;15.498;2023-04-03T04:43:49;5.50;69.00
1988;DHT22;12775;46.994;15.498;2023-04-03T04:46:16;5.50;69.00
1988;DHT22;12775;46.994;15.498;2023-04-03T04:48:44;5.50;69.00
1988;DHT22;12775;46.994;15.498;2023-04-03T04:51:11;5.60;68.50
1988;DHT22;12775;46.994;15.498;2023-04-03T04:53:39;5.60;68.10
1988;DHT22;12775;46.994;15.498;2023-04-03T04:56:07;5.60;67.80
1988;DHT22;12775;46.994;15.498;2023-04-03T04:58:34;5.60;69.50
1988;DHT22;12775;46.994;15.498;2023-04-03T05:01:02;5.60;69.50
1988;DHT22;12775;46.994;15.498;2023-04-03T05:03:29;5.70;70.70
1988;DHT22;12775;46.994;15.498;2023-04-03T05:05:56;5.80;70.70
1988;DHT22;12775;46.994;15.498;2023-04-03T05:08:24;5.80;70.60
1988;DHT22;12775;46.994;15.498;2023-04-03T05:10:51;5.90;71.40
1988;DHT22;12775;46.994;15.498;2023-04-03T05:13:19;5.90;69.90
1988;DHT22;12775;46.994;15.498;2023-04-03T05:15:47;6.00;71.40
1988;DHT22;12775;46.994;15.498;2023-04-03T05:18:14;6.00;71.10
1988;DHT22;12775;46.994;15.498;2023-04-03T05:20:41;6.10;71.30
1988;DHT22;12775;46.994;15.498;2023-04-03T05:23:10;6.10;69.80
1988;DHT22;12775;46.994;15.498;2023-04-03T05:25:38;6.10;70.10
1988;DHT22;12775;46.994;15.498;2023-04-03T05:28:05;6.20;69.40
1988;DHT22;12775;46.994;15.498;2023-04-03T05:30:31;6.10;69.30
1988;DHT22;12775;46.994;15.498;2023-04-03T05:32:58;6.20;71.30
1988;DHT22;12775;46.994;15.498;2023-04-03T05:35:25;6.30;72.90
1988;DHT22;12775;46.994;15.498;2023-04-03T05:37:52;6.40;73.70
1988;DHT22;12775;46.994;15.498;2023-04-03T05:40:19;6.40;73.70
1988;DHT22;12775;46.994;15.498;2023-04-03T05:42:45;6.40;73.40
1988;DHT22;12775;46.994;15.498;2023-04-03T05:45:12;6.50;71.80
1988;DHT22;12775;46.994;15.498;2023-04-03T05:47:40;6.50;72.60
1988;DHT22;12775;46.994;15.498;2023-04-03T05:50:08;6.50;72.20
1988;DHT22;12775;46.994;15.498;2023-04-03T05:52:36;6.50;72.10
1988;DHT22;12775;46.994;15.498;2023-04-03T05:55:03;6.60;72.70
1988;DHT22;12775;46.994;15.498;2023-04-03T05:57:31;6.60;70.90
1988;DHT22;12775;46.994;15.498;2023-04-03T05:59:58;6.70;72.20
1988;DHT22;12775;46.994;15.498;2023-04-03T06:02:25;6.70;72.20
1988;DHT22;12775;46.994;15.498;2023-04-03T06:04:51;6.70;72.00
1988;DHT22;12775;46.994;15.498;2023-04-03T06:07:19;6.80;73.00
1988;DHT22;12775;46.994;15.498;2023-04-03T06:09:45;6.90;72.40
1988;DHT22;12775;46.994;15.498;2023-04-03T06:12:13;7.00;70.50
1988;DHT22;12775;46.994;15.498;2023-04-03T06:14:41;6.90;70.60
1988;DHT22;12775;46.994;15.498;2023-04-03T06:17:08;6.90;70.00
1988;DHT22;12775;46.994;15.498;2023-04-03T06:19:36;6.90;70.70
1988;DHT22;12775;46.994;15.498;2023-04-03T06:22:03;7.00;71.00
1988;DHT22;12775;46.994;15.498;2023-04-03T06:24:30;7.00;71.20
1988;DHT22;12775;46.994;15.498;2023-04-03T06:26:58;7.10;70.60
1988;DHT22;12775;46.994;15.498;2023-04-03T06:29:26;7.10;71.00
1988;DHT22;12775;46.994;15.498;2023-04-03T06:31:53;7.10;71.00
1988;DHT22;12775;46.994;15.498;2023-04-03T06:34:19;7.20;70.10
1988;DHT22;12775;46.994;15.498;2023-04-03T06:36:46;7.20;69.70
1988;DHT22;12775;46.994;15.498;2023-04-03T06:39:16;7.20;70.00
1988;DHT22;12775;46.994;15.498;2023-04-03T06:41:42;7.30;70.40
1988;DHT22;12775;46.994;15.498;2023-04-03T06:44:10;7.30;71.40
1988;DHT22;12775;46.994;15.498;2023-04-03T06:46:38;7.40;71.00
1988;DHT22;12775;46.994;15.498;2023-04-03T06:49:06;7.50;70.80
1988;DHT22;12775;46.994;15.498;2023-04-03T06:51:33;7.40;70.60
1988;DHT22;12775;46.994;15.498;2023-04-03T06:54:00;7.70;70.20
1988;DHT22;12775;46.994;15.498;2023-04-03T06:56:27;7.60;70.00
1988;DHT22;12775;46.994;15.498;2023-04-03T06:58:54;7.80;69.50
1988;DHT22;12775;46.994;15.498;2023-04-03T07:01:21;7.90;67.80
1988;DHT22;12775;46.994;15.498;2023-04-03T07:03:49;7.90;69.60
1988;DHT22;12775;46.994;15.498;2023-04-03T07:06:16;8.00;70.00
1988;DHT22;12775;46.994;15.498;2023-04-03T07:08:44;8.20;68.90
1988;DHT22;12775;46.994;15.498;2023-04-03T07:11:11;8.30;67.10
1988;DHT22;12775;46.994;15.498;2023-04-03T07:13:38;8.60;69.00
1988;DHT22;12775;46.994;15.498;2023-04-03T07:16:06;8.80;65.10
1988;DHT22;12775;46.994;15.498;2023-04-03T07:18:34;8.90;67.70
1988;DHT22;12775;46.994;15.498;2023-04-03T07:21:00;8.90;67.60
1988;DHT22;12775;46.994;15.498;2023-04-03T07:23:27;9.00;66.40
1988;DHT22;12775;46.994;15.498;2023-04-03T07:25:54;9.10;60.50
1988;DHT22;12775;46.994;15.498;2023-04-03T07:28:21;9.10;58.20
1988;DHT22;12775;46.994;15.498;2023-04-03T07:30:50;8.90;59.10
1988;DHT22;12775;46.994;15.498;2023-04-03T07:33:17;8.90;61.20
1988;DHT22;12775;46.994;15.498;2023-04-03T07:35:44;9.00;61.30
1988;DHT22;12775;46.994;15.498;2023-04-03T07:38:11;9.20;63.80
1988;DHT22;12775;46.994;15.498;2023-04-03T07:40:39;9.10;57.90
1988;DHT22;12775;46.994;15.498;2023-04-03T07:43:07;9.10;58.00
1988;DHT22;12775;46.994;15.498;2023-04-03T07:45:34;9.00;57.90
1988;DHT22;12775;46.994;15.498;2023-04-03T07:48:01;8.90;57.70
1988;DHT22;12775;46.994;15.498;2023-04-03T07:50:29;8.80;58.30
1988;DHT22;12775;46.994;15.498;2023-04-03T07:52:56;8.90;59.90
1988;DHT22;12775;46.994;15.498;2023-04-03T07:55:24;8.90;57.80
1988;DHT22;12775;46.994;15.498;2023-04-03T07:57:51;9.00;60.20
1988;DHT22;12775;46.994;15.498;2023-04-03T08:00:19;9.10;58.70
1988;DHT22;12775;46.994;15.498;2023-04-03T08:02:47;9.10;57.70
1988;DHT22;12775;46.994;15.498;2023-04-03T08:05:16;9.10;57.20
1988;DHT22;12775;46.994;15.498;2023-04-03T08:07:43;8.90;56.90
1988;DHT22;12775;46.994;15.498;2023-04-03T08:10:10;8.90;56.30
1988;DHT22;12775;46.994;15.498;2023-04-03T08:12:38;8.80;56.00
1988;DHT22;12775;46.994;15.498;2023-04-03T08:15:06;8.90;57.40
1988;DHT22;12775;46.994;15.498;2023-04-03T08:17:32;8.90;57.30
1988;DHT22;12775;46.994;15.498;2023-04-03T08:20:00;8.80;57.60
1988;DHT22;12775;46.994;15.498;2023-04-03T08:22:27;8.70;55.70
1988;DHT22;12775;46.994;15.498;2023-04-03T08:24:54;8.70;56.40
1988;DHT22;12775;46.994;15.498;2023-04-03T08:27:21;8.70;57.80
1988;DHT22;12775;46.994;15.498;2023-04-03T08:29:50;8.70;58.40
1988;DHT22;12775;46.994;15.498;2023-04-03T08:32:17;8.60;56.00
1988;DHT22;12775;46.994;15.498;2023-04-03T08:37:26;8.80;57.70
1988;DHT22;12775;46.994;15.498;2023-04-03T08:39:54;8.80;57.00
1988;DHT22;12775;46.994;15.498;2023-04-03T08:45:09;9.00;57.10
1988;DHT22;12775;46.994;15.498;2023-04-03T08:47:42;9.10;56.00
1988;DHT22;12775;46.994;15.498;2023-04-03T08:50:12;9.10;55.40
1988;DHT22;12775;46.994;15.498;2023-04-03T08:52:42;9.30;55.30
1988;DHT22;12775;46.994;15.498;2023-04-03T08:55:19;9.60;54.80
1988;DHT22;12775;46.994;15.498;2023-04-03T08:57:44;9.70;53.40
1988;DHT22;12775;46.994;15.498;2023-04-03T09:00:16;9.70;52.40
1988;DHT22;12775;46.994;15.498;2023-04-03T09:02:47;9.60;53.10
1988;DHT22;12775;46.994;15.498;2023-04-03T09:05:17;9.80;52.90
1988;DHT22;12775;46.994;15.498;2023-04-03T09:07:44;9.80;54.70
1988;DHT22;12775;46.994;15.498;2023-04-03T09:10:11;9.80;52.80
1988;DHT22;12775;46.994;15.498;2023-04-03T09:12:39;9.60;51.80
1988;DHT22;12775;46.994;15.498;2023-04-03T09:15:24;9.60;51.10
1988;DHT22;12775;46.994;15.498;2023-04-03T09:18:00;9.40;51.30
1988;DHT22;12775;46.994;15.498;2023-04-03T09:23:17;9.50;50.50
1988;DHT22;12775;46.994;15.498;2023-04-03T09:25:41;9.50;49.30
1988;DHT22;12775;46.994;15.498;2023-04-03T09:28:08;9.60;50.30
1988;DHT22;12775;46.994;15.498;2023-04-03T09:30:36;9.80;50.60
1988;DHT22;12775;46.994;15.498;2023-04-03T09:33:04;10.00;53.30
1988;DHT22;12775;46.994;15.498;2023-04-03T09:35:31;10.00;53.60
1988;DHT22;12775;46.994;15.498;2023-04-03T09:38:01;10.10;49.90
1988;DHT22;12775;46.994;15.498;2023-04-03T09:40:31;10.30;52.30
1988;DHT22;12775;46.994;15.498;2023-04-03T09:43:00;10.40;48.60
1988;DHT22;12775;46.994;15.498;2023-04-03T09:45:30;10.00;47.90
1988;DHT22;12775;46.994;15.498;2023-04-03T09:48:04;9.80;49.10
1988;DHT22;12775;46.994;15.498;2023-04-03T09:50:30;9.90;52.50
1988;DHT22;12775;46.994;15.498;2023-04-03T09:52:58;9.90;50.40
1988;DHT22;12775;46.994;15.498;2023-04-03T09:55:26;10.00;49.50
1988;DHT22;12775;46.994;15.498;2023-04-03T09:57:54;10.20;50.90
1988;DHT22;12775;46.994;15.498;2023-04-03T10:00:22;10.40;50.90
1988;DHT22;12775;46.994;15.498;2023-04-03T10:02:51;10.90;58.40
1988;DHT22;12775;46.994;15.498;2023-04-03T10:05:27;11.20;53.70
1988;DHT22;12775;46.994;15.498;2023-04-03T10:07:59;11.30;47.80
1988;DHT22;12775;46.994;15.498;2023-04-03T10:10:21;10.80;47.50
1988;DHT22;12775;46.994;15.498;2023-04-03T10:12:48;10.50;48.00
1988;DHT22;12775;46.994;15.498;2023-04-03T10:15:16;10.80;51.60
1988;DHT22;12775;46.994;15.498;2023-04-03T10:17:57;10.80;51.60
1988;DHT22;12775;46.994;15.498;2023-04-03T10:20:39;11.10;50.30
1988;DHT22;12775;46.994;15.498;2023-04-03T10:23:14;11.60;54.10
1988;DHT22;12775;46.994;15.498;2023-04-03T10:25:43;11.90;52.90
1988;DHT22;12775;46.994;15.498;2023-04-03T10:28:13;12.10;51.80
1988;DHT22;12775;46.994;15.498;2023-04-03T10:30:47;12.00;46.60
1988;DHT22;12775;46.994;15.498;2023-04-03T10:33:23;11.90;47.90
1988;DHT22;12775;46.994;15.498;2023-04-03T10:38:33;11.10;49.80
1988;DHT22;12775;46.994;15.498;2023-04-03T10:41:04;11.40;49.40
1988;DHT22;12775;46.994;15.498;2023-04-03T10:43:40;11.50;47.90
1988;DHT22;12775;46.994;15.498;2023-04-03T10:46:36;11.30;47.10
1988;DHT22;12775;46.994;15.498;2023-04-03T10:51:38;11.20;47.30
1988;DHT22;12775;46.994;15.498;2023-04-03T10:54:10;11.30;50.10
1988;DHT22;12775;46.994;15.498;2023-04-03T10:56:39;11.70;50.80
1988;DHT22;12775;46.994;15.498;2023-04-03T10:59:31;11.70;50.80
1988;DHT22;12775;46.994;15.498;2023-04-03T11:02:00;12.60;52.80
1988;DHT22;12775;46.994;15.498;2023-04-03T11:04:28;12.60;46.00
1988;DHT22;12775;46.994;15.498;2023-04-03T11:06:57;12.20;45.30
1988;DHT22;12775;46.994;15.498;2023-04-03T11:09:25;12.10;45.20
1988;DHT22;12775;46.994;15.498;2023-04-03T11:12:00;11.90;46.20
1988;DHT22;12775;46.994;15.498;2023-04-03T11:14:27;11.90;49.00
1988;DHT22;12775;46.994;15.498;2023-04-03T11:17:19;11.80;45.80
1988;DHT22;12775;46.994;15.498;2023-04-03T11:22:35;12.00;50.30
1988;DHT22;12775;46.994;15.498;2023-04-03T11:25:04;11.80;48.20
1988;DHT22;12775;46.994;15.498;2023-04-03T11:27:30;11.80;49.70
1988;DHT22;12775;46.994;15.498;2023-04-03T11:29:56;11.80;45.90
1988;DHT22;12775;46.994;15.498;2023-04-03T11:33:13;11.80;46.20
1988;DHT22;12775;46.994;15.498;2023-04-03T11:35:21;12.00;48.00
1988;DHT22;12775;46.994;15.498;2023-04-03T11:37:50;11.60;46.10
1988;DHT22;12775;46.994;15.498;2023-04-03T11:40:21;11.40;46.20
1988;DHT22;12775;46.994;15.498;2023-04-03T11:42:48;11.00;46.80
1988;DHT22;12775;46.994;15.498;2023-04-03T11:48:05;11.00;47.20
1988;DHT22;12775;46.994;15.498;2023-04-03T11:50:42;11.00;47.20
1988;DHT22;12775;46.994;15.498;2023-04-03T11:55:56;11.10;45.70
1988;DHT22;12775;46.994;15.498;2023-04-03T11:58:37;11.10;47.60
1988;DHT22;12775;46.994;15.498;2023-04-03T12:01:05;11.00;46.80
1988;DHT22;12775;46.994;15.498;2023-04-03T12:03:33;11.00;48.20
1988;DHT22;12775;46.994;15.498;2023-04-03T12:06:50;11.40;50.40
1988;DHT22;12775;46.994;15.498;2023-04-03T12:08:59;11.80;46.00
1988;DHT22;12775;46.994;15.498;2023-04-03T12:11:29;12.00;48.70
1988;DHT22;12775;46.994;15.498;2023-04-03T12:14:05;12.10;48.50
1988;DHT22;12775;46.994;15.498;2023-04-03T12:16:33;12.10;46.50
1988;DHT22;12775;46.994;15.498;2023-04-03T12:19:02;12.30;50.10
1988;DHT22;12775;46.994;15.498;2023-04-03T12:22:04;12.50;45.40
1988;DHT22;12775;46.994;15.498;2023-04-03T12:24:23;12.30;48.00
1988;DHT22;12775;46.994;15.498;2023-04-03T12:29:39;12.60;48.50
1988;DHT22;12775;46.994;15.498;2023-04-03T12:32:26;12.70;44.90
1988;DHT22;12775;46.994;15.498;2023-04-03T12:43:19;12.00;44.40
1988;DHT22;12775;46.994;15.498;2023-04-03T12:48:48;12.00;47.40
1988;DHT22;12775;46.994;15.498;2023-04-03T12:51:15;11.80;44.60
1988;DHT22;12775;46.994;15.498;2023-04-03T12:53:41;11.60;43.90
1988;DHT22;12775;46.994;15.498;2023-04-03T12:56:19;11.20;46.90
1988;DHT22;12775;46.994;15.498;2023-04-03T12:58:45;10.80;45.50
1988;DHT22;12775;46.994;15.498;2023-04-03T13:01:13;11.10;49.00
1988;DHT22;12775;46.994;15.498;2023-04-03T13:03:39;11.10;49.00
1988;DHT22;12775;46.994;15.498;2023-04-03T13:06:06;11.70;49.80
1988;DHT22;12775;46.994;15.498;2023-04-03T13:08:33;12.10;51.30
1988;DHT22;12775;46.994;15.498;2023-04-03T13:11:06;12.20;45.10
1988;DHT22;12775;46.994;15.498;2023-04-03T13:13:33;12.30;46.70
1988;DHT22;12775;46.994;15.498;2023-04-03T13:16:07;12.20;43.10
1988;DHT22;12775;46.994;15.498;2023-04-03T13:18:29;12.00;43.20
1988;DHT22;12775;46.994;15.498;2023-04-03T13:20:57;12.20;47.20
1988;DHT22;12775;46.994;15.498;2023-04-03T13:23:24;12.30;48.20
1988;DHT22;12775;46.994;15.498;2023-04-03T13:25:52;12.00;43.50
1988;DHT22;12775;46.994;15.498;2023-04-03T13:28:22;11.70;41.60
1988;DHT22;12775;46.994;15.498;2023-04-03T13:31:01;11.40;41.40
1988;DHT22;12775;46.994;15.498;2023-04-03T13:33:28;11.40;41.40
1988;DHT22;12775;46.994;15.498;2023-04-03T13:35:56;11.00;43.90
1988;DHT22;12775;46.994;15.498;2023-04-03T13:38:24;11.00;44.60
1988;DHT22;12775;46.994;15.498;2023-04-03T13:40:53;11.00;47.20
1988;DHT22;12775;46.994;15.498;2023-04-03T13:43:21;11.10;47.40
1988;DHT22;12775;46.994;15.498;2023-04-03T13:45:54;11.30;48.60
1988;DHT22;12775;46.994;15.498;2023-04-03T13:48:20;11.40;46.20
1988;DHT22;12775;46.994;15.498;2023-04-03T13:50:53;11.50;48.30
1988;DHT22;12775;46.994;15.498;2023-04-03T13:53:19;11.60;47.70
1988;DHT22;12775;46.994;15.498;2023-04-03T13:58:37;11.60;48.40
1988;DHT22;12775;46.994;15.498;2023-04-03T14:01:10;11.60;47.90
1988;DHT22;12775;46.994;15.498;2023-04-03T14:03:41;11.60;47.90
1988;DHT22;12775;46.994;15.498;2023-04-03T14:06:06;11.60;47.20
1988;DHT22;12775;46.994;15.498;2023-04-03T14:08:33;11.70;43.20
1988;DHT22;12775;46.994;15.498;2023-04-03T14:11:01;11.90;47.80
1988;DHT22;12775;46.994;15.498;2023-04-03T14:13:29;12.20;49.10
1988;DHT22;12775;46.994;15.498;2023-04-03T14:15:58;12.00;46.90
1988;DHT22;12775;46.994;15.498;2023-04-03T14:18:25;12.00;47.40
1988;DHT22;12775;46.994;15.498;2023-04-03T14:20:52;11.80;43.70
1988;DHT22;12775;46.994;15.498;2023-04-03T14:23:21;11.80;48.30
1988;DHT22;12775;46.994;15.498;2023-04-03T14:25:48;12.10;49.50
1988;DHT22;12775;46.994;15.498;2023-04-03T14:28:17;12.10;44.30
1988;DHT22;12775;46.994;15.498;2023-04-03T14:30:43;12.10;43.90
1988;DHT22;12775;46.994;15.498;2023-04-03T14:33:13;11.80;44.80
1988;DHT22;12775;46.994;15.498;2023-04-03T14:35:37;11.90;48.80
1988;DHT22;12775;46.994;15.498;2023-04-03T14:38:09;12.00;47.20
1988;DHT22;12775;46.994;15.498;2023-04-03T14:40:32;11.90;46.70
1988;DHT22;12775;46.994;15.498;2023-04-03T14:43:00;11.90;47.50
1988;DHT22;12775;46.994;15.498;2023-04-03T14:45:27;11.90;46.00
1988;DHT22;12775;46.994;15.498;2023-04-03T14:47:55;11.80;46.50
1988;DHT22;12775;46.994;15.498;2023-04-03T14:50:23;11.90;47.30
1988;DHT22;12775;46.994;15.498;2023-04-03T14:52:50;11.80;44.60
1988;DHT22;12775;46.994;15.498;2023-04-03T14:55:18;11.80;45.20
1988;DHT22;12775;46.994;15.498;2023-04-03T14:57:44;11.50;43.50
1988;DHT22;12775;46.994;15.498;2023-04-03T15:00:12;11.50;45.60
1988;DHT22;12775;46.994;15.498;2023-04-03T15:02:39;11.60;46.80
1988;DHT22;12775;46.994;15.498;2023-04-03T15:05:08;11.50;45.90
1988;DHT22;12775;46.994;15.498;2023-04-03T15:07:36;11.60;47.00
1988;DHT22;12775;46.994;15.498;2023-04-03T15:10:14;11.30;46.20
1988;DHT22;12775;46.994;15.498;2023-04-03T15:12:31;11.00;46.10
1988;DHT22;12775;46.994;15.498;2023-04-03T15:14:58;10.60;43.80
1988;DHT22;12775;46.994;15.498;2023-04-03T15:17:25;10.50;43.60
1988;DHT22;12775;46.994;15.498;2023-04-03T15:19:52;10.30;45.60
1988;DHT22;12775;46.994;15.498;2023-04-03T15:22:20;10.10;44.70
1988;DHT22;12775;46.994;15.498;2023-04-03T15:24:47;9.80;45.00
1988;DHT22;12775;46.994;15.498;2023-04-03T15:27:14;9.60;44.80
1988;DHT22;12775;46.994;15.498;2023-04-03T15:29:42;9.60;44.70
1988;DHT22;12775;46.994;15.498;2023-04-03T15:32:09;9.70;46.00
1988;DHT22;12775;46.994;15.498;2023-04-03T15:34:37;9.90;47.90
1988;DHT22;12775;46.994;15.498;2023-04-03T15:37:04;10.00;47.40
1988;DHT22;12775;46.994;15.498;2023-04-03T15:39:31;10.00;45.50
1988;DHT22;12775;46.994;15.498;2023-04-03T15:41:59;9.80;43.70
1988;DHT22;12775;46.994;15.498;2023-04-03T15:44:26;9.90;46.90
1988;DHT22;12775;46.994;15.498;2023-04-03T15:46:53;9.90;47.80
1988;DHT22;12775;46.994;15.498;2023-04-03T15:49:22;10.00;46.00
1988;DHT22;12775;46.994;15.498;2023-04-03T15:51:49;9.80;43.30
1988;DHT22;12775;46.994;15.498;2023-04-03T15:54:17;9.60;43.00
1988;DHT22;12775;46.994;15.498;2023-04-03T15:56:44;9.40;45.90
1988;DHT22;12775;46.994;15.498;2023-04-03T15:59:12;9.50;43.80
1988;DHT22;12775;46.994;15.498;2023-04-03T16:01:40;9.40;42.80
1988;DHT22;12775;46.994;15.498;2023-04-03T16:04:07;9.20;43.90
1988;DHT22;12775;46.994;15.498;2023-04-03T16:06:34;9.20;45.20
1988;DHT22;12775;46.994;15.498;2023-04-03T16:09:01;9.10;45.40
1988;DHT22;12775;46.994;15.498;2023-04-03T16:11:28;9.00;43.20
1988;DHT22;12775;46.994;15.498;2023-04-03T16:13:57;8.80;43.50
1988;DHT22;12775;46.994;15.498;2023-04-03T16:16:24;8.50;44.20
1988;DHT22;12775;46.994;15.498;2023-04-03T16:18:51;8.50;45.50
1988;DHT22;12775;46.994;15.498;2023-04-03T16:21:19;8.60;45.10
1988;DHT22;12775;46.994;15.498;2023-04-03T16:23:46;8.50;45.10
1988;DHT22;12775;46.994;15.498;2023-04-03T16:26:14;8.30;45.40
1988;DHT22;12775;46.994;15.498;2023-04-03T16:28:41;8.30;45.70
1988;DHT22;12775;46.994;15.498;2023-04-03T16:31:08;8.10;45.30